Weather at Agdenes Airfield Breivika

Public forecast

Using degrees Celsius for public forecast. Weather courtesy of forecast.io.

Closest aviation weather report (METAR) to Agdenes Airfield Breivika

Report is more than 6 hours old.

Closest report is Ørland Airport, 5.3 nm (9.9 km) NW.

2022/11/14 15:20 (retrieved 2 years ago)

ENOL 141520Z 12005KT 9999 FEW014 07/05 Q1020 NOSIG

Closest aviation forecast (TAF) to Agdenes Airfield Breivika

Forecast is more than 12 hours old.

Closest forecast is Ørland Airport, 5.3 nm (9.9 km) NW.

2023/02/22 18:36 (retrieved 1 year ago)

TAF ENOL 221700Z 2218/2318 26015KT 9999 -RA BKN040 TEMPO 2218/2223 4000 RADZ BKN012 TEMPO 2300/2312 27022G32KT SCT020CB BKN030 TEMPO 2301/2313 1200 SHSNRA VV007 BECMG 2314/2317 14012KT